NO-0003 weather

Kilen Seaplane Base
Akershus, Norway

Public forecast

Using degrees Celsius for public forecast. Weather courtesy of forecast.io.

Closest aviation weather report (METAR) to Kilen Seaplane Base

Closest report is Oslo, Fornebu Airport, 0.6 nm (1.1 km) ENE. Retrieved 2020/06/01 04:50 UTC (10 minutes ago):

ENFB 010450Z AUTO 19021KT 9999NDV NCD ///// Q//// W///S/

Closest aviation forecast (TAF) to Kilen Seaplane Base

Closest forecast is Oslo Gardermoen Airport, 23.5 nm (43.6 km) NE. Retrieved 2020-06-01 00:00 UTC (5 hours ago):

TAF ENGM 312300Z 0100/0124 VRB03KT CAVOK BECMG 0112/0114 25010KT BECMG 0119/0121 01005KT